sensor_id;sensor_type;location;lat;lon;timestamp;temperature;humidity
19340;HTU21D;9804;52.350;6.684;2024-02-26T00:01:39;7.39;-6.00
19340;HTU21D;9804;52.350;6.684;2024-02-26T00:04:08;7.43;-6.00
19340;HTU21D;9804;52.350;6.684;2024-02-26T00:06:33;7.49;-6.00
19340;HTU21D;9804;52.350;6.684;2024-02-26T00:08:59;7.41;-6.00
19340;HTU21D;9804;52.350;6.684;2024-02-26T00:11:25;7.47;-6.00
19340;HTU21D;9804;52.350;6.684;2024-02-26T00:13:51;7.49;-6.00
19340;HTU21D;9804;52.350;6.684;2024-02-26T00:16:16;7.42;-6.00
19340;HTU21D;9804;52.350;6.684;2024-02-26T00:18:42;7.43;-6.00
19340;HTU21D;9804;52.350;6.684;2024-02-26T00:21:07;7.47;-6.00
19340;HTU21D;9804;52.350;6.684;2024-02-26T00:23:32;7.44;-6.00
19340;HTU21D;9804;52.350;6.684;2024-02-26T00:25:58;7.61;-6.00
19340;HTU21D;9804;52.350;6.684;2024-02-26T00:28:24;7.56;-6.00
19340;HTU21D;9804;52.350;6.684;2024-02-26T00:30:54;7.60;-6.00
19340;HTU21D;9804;52.350;6.684;2024-02-26T00:33:21;7.60;-6.00
19340;HTU21D;9804;52.350;6.684;2024-02-26T00:35:48;7.54;-6.00
19340;HTU21D;9804;52.350;6.684;2024-02-26T00:38:13;7.53;-6.00
19340;HTU21D;9804;52.350;6.684;2024-02-26T00:40:39;7.53;-6.00
19340;HTU21D;9804;52.350;6.684;2024-02-26T00:43:06;7.54;-6.00
19340;HTU21D;9804;52.350;6.684;2024-02-26T00:45:32;7.49;-6.00
19340;HTU21D;9804;52.350;6.684;2024-02-26T00:47:58;7.49;-6.00
19340;HTU21D;9804;52.350;6.684;2024-02-26T00:50:23;7.45;-6.00
19340;HTU21D;9804;52.350;6.684;2024-02-26T00:52:49;7.56;-6.00
19340;HTU21D;9804;52.350;6.684;2024-02-26T00:55:14;7.58;-6.00
19340;HTU21D;9804;52.350;6.684;2024-02-26T00:57:40;7.48;-6.00
19340;HTU21D;9804;52.350;6.684;2024-02-26T01:00:06;7.63;-6.00
19340;HTU21D;9804;52.350;6.684;2024-02-26T01:02:34;7.54;-6.00
19340;HTU21D;9804;52.350;6.684;2024-02-26T01:04:59;7.45;-6.00
19340;HTU21D;9804;52.350;6.684;2024-02-26T01:07:25;7.38;-6.00
19340;HTU21D;9804;52.350;6.684;2024-02-26T01:09:50;7.48;-6.00
19340;HTU21D;9804;52.350;6.684;2024-02-26T01:12:16;7.39;-6.00
19340;HTU21D;9804;52.350;6.684;2024-02-26T01:14:41;7.30;-6.00
19340;HTU21D;9804;52.350;6.684;2024-02-26T01:17:06;7.40;-6.00
19340;HTU21D;9804;52.350;6.684;2024-02-26T01:19:32;7.41;-6.00
19340;HTU21D;9804;52.350;6.684;2024-02-26T01:21:57;7.25;-6.00
19340;HTU21D;9804;52.350;6.684;2024-02-26T01:24:23;7.28;-6.00
19340;HTU21D;9804;52.350;6.684;2024-02-26T01:26:48;7.24;-6.00
19340;HTU21D;9804;52.350;6.684;2024-02-26T01:29:13;7.33;-6.00
19340;HTU21D;9804;52.350;6.684;2024-02-26T01:31:39;7.14;-6.00
19340;HTU21D;9804;52.350;6.684;2024-02-26T01:34:04;7.18;-6.00
19340;HTU21D;9804;52.350;6.684;2024-02-26T01:36:30;7.10;-6.00
19340;HTU21D;9804;52.350;6.684;2024-02-26T01:38:55;7.12;-6.00
19340;HTU21D;9804;52.350;6.684;2024-02-26T01:41:20;7.03;-6.00
19340;HTU21D;9804;52.350;6.684;2024-02-26T01:43:46;7.08;-6.00
19340;HTU21D;9804;52.350;6.684;2024-02-26T01:46:13;7.12;-6.00
19340;HTU21D;9804;52.350;6.684;2024-02-26T01:48:43;7.02;-6.00
19340;HTU21D;9804;52.350;6.684;2024-02-26T01:51:10;7.13;-6.00
19340;HTU21D;9804;52.350;6.684;2024-02-26T01:53:36;7.14;-6.00
19340;HTU21D;9804;52.350;6.684;2024-02-26T01:56:01;7.12;-6.00
19340;HTU21D;9804;52.350;6.684;2024-02-26T01:58:28;7.11;-6.00
19340;HTU21D;9804;52.350;6.684;2024-02-26T02:00:55;7.15;-6.00
19340;HTU21D;9804;52.350;6.684;2024-02-26T02:03:21;7.08;-6.00
19340;HTU21D;9804;52.350;6.684;2024-02-26T02:05:47;7.20;-6.00
19340;HTU21D;9804;52.350;6.684;2024-02-26T02:08:13;7.20;-6.00
19340;HTU21D;9804;52.350;6.684;2024-02-26T02:10:39;7.15;-6.00
19340;HTU21D;9804;52.350;6.684;2024-02-26T02:13:06;7.24;-6.00
19340;HTU21D;9804;52.350;6.684;2024-02-26T02:15:31;7.23;-6.00
19340;HTU21D;9804;52.350;6.684;2024-02-26T02:17:57;7.18;-6.00
19340;HTU21D;9804;52.350;6.684;2024-02-26T02:20:33;7.22;-6.00
19340;HTU21D;9804;52.350;6.684;2024-02-26T02:22:59;7.24;-6.00
19340;HTU21D;9804;52.350;6.684;2024-02-26T02:25:24;7.28;-6.00
19340;HTU21D;9804;52.350;6.684;2024-02-26T02:27:50;7.25;-6.00
19340;HTU21D;9804;52.350;6.684;2024-02-26T02:30:17;7.37;-6.00
19340;HTU21D;9804;52.350;6.684;2024-02-26T02:32:43;7.39;-6.00
19340;HTU21D;9804;52.350;6.684;2024-02-26T02:35:09;7.41;-6.00
19340;HTU21D;9804;52.350;6.684;2024-02-26T02:37:34;7.49;-6.00
19340;HTU21D;9804;52.350;6.684;2024-02-26T02:40:00;7.45;-6.00
19340;HTU21D;9804;52.350;6.684;2024-02-26T02:42:26;7.42;-6.00
19340;HTU21D;9804;52.350;6.684;2024-02-26T02:44:51;7.52;-6.00
19340;HTU21D;9804;52.350;6.684;2024-02-26T02:47:18;7.44;-6.00
19340;HTU21D;9804;52.350;6.684;2024-02-26T02:49:44;7.54;-6.00
19340;HTU21D;9804;52.350;6.684;2024-02-26T02:52:09;7.39;-6.00
19340;HTU21D;9804;52.350;6.684;2024-02-26T02:54:34;7.56;-6.00
19340;HTU21D;9804;52.350;6.684;2024-02-26T02:57:02;7.42;-6.00
19340;HTU21D;9804;52.350;6.684;2024-02-26T02:59:28;7.35;-6.00
19340;HTU21D;9804;52.350;6.684;2024-02-26T03:01:53;7.57;-6.00
19340;HTU21D;9804;52.350;6.684;2024-02-26T03:04:19;7.29;-6.00
19340;HTU21D;9804;52.350;6.684;2024-02-26T03:06:44;7.40;-6.00
19340;HTU21D;9804;52.350;6.684;2024-02-26T03:09:10;7.41;-6.00
19340;HTU21D;9804;52.350;6.684;2024-02-26T03:11:35;7.35;-6.00
19340;HTU21D;9804;52.350;6.684;2024-02-26T03:14:01;7.40;-6.00
19340;HTU21D;9804;52.350;6.684;2024-02-26T03:16:27;7.43;-6.00
19340;HTU21D;9804;52.350;6.684;2024-02-26T03:18:53;7.44;-6.00
19340;HTU21D;9804;52.350;6.684;2024-02-26T03:21:18;7.32;-6.00
19340;HTU21D;9804;52.350;6.684;2024-02-26T03:23:43;7.38;-6.00
19340;HTU21D;9804;52.350;6.684;2024-02-26T03:26:09;7.37;-6.00
19340;HTU21D;9804;52.350;6.684;2024-02-26T03:28:40;7.37;-6.00
19340;HTU21D;9804;52.350;6.684;2024-02-26T03:31:06;7.38;-6.00
19340;HTU21D;9804;52.350;6.684;2024-02-26T03:33:31;7.52;-6.00
19340;HTU21D;9804;52.350;6.684;2024-02-26T03:35:56;7.47;-6.00
19340;HTU21D;9804;52.350;6.684;2024-02-26T03:38:22;7.43;-6.00
19340;HTU21D;9804;52.350;6.684;2024-02-26T03:40:47;7.46;-6.00
19340;HTU21D;9804;52.350;6.684;2024-02-26T03:43:13;7.53;-6.00
19340;HTU21D;9804;52.350;6.684;2024-02-26T03:45:39;7.45;-6.00
19340;HTU21D;9804;52.350;6.684;2024-02-26T03:48:05;7.58;-6.00
19340;HTU21D;9804;52.350;6.684;2024-02-26T03:50:31;7.59;-6.00
19340;HTU21D;9804;52.350;6.684;2024-02-26T03:52:57;7.50;-6.00
19340;HTU21D;9804;52.350;6.684;2024-02-26T03:55:23;7.47;-6.00
19340;HTU21D;9804;52.350;6.684;2024-02-26T03:57:53;7.59;-6.00
19340;HTU21D;9804;52.350;6.684;2024-02-26T04:00:19;7.52;-6.00
19340;HTU21D;9804;52.350;6.684;2024-02-26T04:02:46;7.59;-6.00
19340;HTU21D;9804;52.350;6.684;2024-02-26T04:05:13;7.72;-6.00
19340;HTU21D;9804;52.350;6.684;2024-02-26T04:07:39;7.69;-6.00
19340;HTU21D;9804;52.350;6.684;2024-02-26T04:10:09;7.58;-6.00
19340;HTU21D;9804;52.350;6.684;2024-02-26T04:12:34;7.58;-6.00
19340;HTU21D;9804;52.350;6.684;2024-02-26T04:15:00;7.69;-6.00
19340;HTU21D;9804;52.350;6.684;2024-02-26T04:17:25;7.69;-6.00
19340;HTU21D;9804;52.350;6.684;2024-02-26T04:19:51;7.78;-6.00
19340;HTU21D;9804;52.350;6.684;2024-02-26T04:22:16;7.70;-6.00
19340;HTU21D;9804;52.350;6.684;2024-02-26T04:24:42;7.71;-6.00
19340;HTU21D;9804;52.350;6.684;2024-02-26T04:27:08;7.69;-6.00
19340;HTU21D;9804;52.350;6.684;2024-02-26T04:29:33;7.70;-6.00
19340;HTU21D;9804;52.350;6.684;2024-02-26T04:31:58;7.69;-6.00
19340;HTU21D;9804;52.350;6.684;2024-02-26T04:34:24;7.61;-6.00
19340;HTU21D;9804;52.350;6.684;2024-02-26T04:36:50;7.52;-6.00
19340;HTU21D;9804;52.350;6.684;2024-02-26T04:39:16;7.61;-6.00
19340;HTU21D;9804;52.350;6.684;2024-02-26T04:41:41;7.58;-6.00
19340;HTU21D;9804;52.350;6.684;2024-02-26T04:44:07;7.67;-6.00
19340;HTU21D;9804;52.350;6.684;2024-02-26T04:46:32;7.78;-6.00
19340;HTU21D;9804;52.350;6.684;2024-02-26T04:48:58;7.55;-6.00
19340;HTU21D;9804;52.350;6.684;2024-02-26T04:51:23;7.49;-6.00
19340;HTU21D;9804;52.350;6.684;2024-02-26T04:53:49;7.71;-6.00
19340;HTU21D;9804;52.350;6.684;2024-02-26T04:56:14;7.62;-6.00
19340;HTU21D;9804;52.350;6.684;2024-02-26T04:58:40;7.70;-6.00
19340;HTU21D;9804;52.350;6.684;2024-02-26T05:01:05;7.71;-6.00
19340;HTU21D;9804;52.350;6.684;2024-02-26T05:03:31;7.78;-6.00
19340;HTU21D;9804;52.350;6.684;2024-02-26T05:05:56;7.81;-6.00
19340;HTU21D;9804;52.350;6.684;2024-02-26T05:08:23;7.78;-6.00
19340;HTU21D;9804;52.350;6.684;2024-02-26T05:10:49;7.69;-6.00
19340;HTU21D;9804;52.350;6.684;2024-02-26T05:13:14;7.79;-6.00
19340;HTU21D;9804;52.350;6.684;2024-02-26T05:15:43;7.74;-6.00
19340;HTU21D;9804;52.350;6.684;2024-02-26T05:18:08;7.81;-6.00
19340;HTU21D;9804;52.350;6.684;2024-02-26T05:20:34;7.79;-6.00
19340;HTU21D;9804;52.350;6.684;2024-02-26T05:23:01;7.75;-6.00
19340;HTU21D;9804;52.350;6.684;2024-02-26T05:25:27;7.79;-6.00
19340;HTU21D;9804;52.350;6.684;2024-02-26T05:27:52;7.86;-6.00
19340;HTU21D;9804;52.350;6.684;2024-02-26T05:30:17;7.87;-6.00
19340;HTU21D;9804;52.350;6.684;2024-02-26T05:32:43;7.99;-6.00
19340;HTU21D;9804;52.350;6.684;2024-02-26T05:35:08;7.86;-6.00
19340;HTU21D;9804;52.350;6.684;2024-02-26T05:37:34;7.91;-6.00
19340;HTU21D;9804;52.350;6.684;2024-02-26T05:39:59;8.02;-6.00
19340;HTU21D;9804;52.350;6.684;2024-02-26T05:42:25;7.86;-6.00
19340;HTU21D;9804;52.350;6.684;2024-02-26T05:44:50;7.77;-6.00
19340;HTU21D;9804;52.350;6.684;2024-02-26T05:47:16;7.79;-6.00
19340;HTU21D;9804;52.350;6.684;2024-02-26T05:49:42;7.78;-6.00
19340;HTU21D;9804;52.350;6.684;2024-02-26T05:52:08;7.83;-6.00
19340;HTU21D;9804;52.350;6.684;2024-02-26T05:54:33;7.86;-6.00
19340;HTU21D;9804;52.350;6.684;2024-02-26T05:56:59;7.85;-6.00
19340;HTU21D;9804;52.350;6.684;2024-02-26T05:59:24;7.90;-6.00
19340;HTU21D;9804;52.350;6.684;2024-02-26T06:01:50;7.83;-6.00
19340;HTU21D;9804;52.350;6.684;2024-02-26T06:04:15;7.81;-6.00
19340;HTU21D;9804;52.350;6.684;2024-02-26T06:06:42;7.90;-6.00
19340;HTU21D;9804;52.350;6.684;2024-02-26T06:09:08;7.74;-6.00
19340;HTU21D;9804;52.350;6.684;2024-02-26T06:11:33;7.82;-6.00
19340;HTU21D;9804;52.350;6.684;2024-02-26T06:13:59;7.84;-6.00
19340;HTU21D;9804;52.350;6.684;2024-02-26T06:16:24;7.73;-6.00
19340;HTU21D;9804;52.350;6.684;2024-02-26T06:18:50;7.68;-6.00
19340;HTU21D;9804;52.350;6.684;2024-02-26T06:21:15;7.71;-6.00
19340;HTU21D;9804;52.350;6.684;2024-02-26T06:23:41;7.78;-6.00
19340;HTU21D;9804;52.350;6.684;2024-02-26T06:26:06;7.85;-6.00
19340;HTU21D;9804;52.350;6.684;2024-02-26T06:28:32;7.68;-6.00
19340;HTU21D;9804;52.350;6.684;2024-02-26T06:30:59;7.88;-6.00
19340;HTU21D;9804;52.350;6.684;2024-02-26T06:33:24;7.79;-6.00
19340;HTU21D;9804;52.350;6.684;2024-02-26T06:35:50;7.86;-6.00
19340;HTU21D;9804;52.350;6.684;2024-02-26T06:38:15;7.69;-6.00
19340;HTU21D;9804;52.350;6.684;2024-02-26T06:40:41;7.60;-6.00
19340;HTU21D;9804;52.350;6.684;2024-02-26T06:43:07;7.49;-6.00
19340;HTU21D;9804;52.350;6.684;2024-02-26T06:45:32;7.78;-6.00
19340;HTU21D;9804;52.350;6.684;2024-02-26T06:47:58;7.70;-6.00
19340;HTU21D;9804;52.350;6.684;2024-02-26T06:50:23;7.70;-6.00
19340;HTU21D;9804;52.350;6.684;2024-02-26T06:52:49;7.74;-6.00
19340;HTU21D;9804;52.350;6.684;2024-02-26T06:55:14;7.64;-6.00
19340;HTU21D;9804;52.350;6.684;2024-02-26T06:57:40;7.53;-6.00
19340;HTU21D;9804;52.350;6.684;2024-02-26T07:00:05;7.53;-6.00
19340;HTU21D;9804;52.350;6.684;2024-02-26T07:02:31;7.71;-6.00
19340;HTU21D;9804;52.350;6.684;2024-02-26T07:04:58;7.67;-6.00
19340;HTU21D;9804;52.350;6.684;2024-02-26T07:07:24;7.75;-6.00
19340;HTU21D;9804;52.350;6.684;2024-02-26T07:09:49;7.53;-6.00
19340;HTU21D;9804;52.350;6.684;2024-02-26T07:12:15;7.55;-6.00
19340;HTU21D;9804;52.350;6.684;2024-02-26T07:14:41;7.85;-6.00
19340;HTU21D;9804;52.350;6.684;2024-02-26T07:17:07;7.61;-6.00
19340;HTU21D;9804;52.350;6.684;2024-02-26T07:19:33;7.69;-6.00
19340;HTU21D;9804;52.350;6.684;2024-02-26T07:21:59;7.88;-6.00
19340;HTU21D;9804;52.350;6.684;2024-02-26T07:24:27;7.67;-6.00
19340;HTU21D;9804;52.350;6.684;2024-02-26T07:26:53;7.57;-6.00
19340;HTU21D;9804;52.350;6.684;2024-02-26T07:29:20;7.64;-6.00
19340;HTU21D;9804;52.350;6.684;2024-02-26T07:31:46;7.67;-6.00
19340;HTU21D;9804;52.350;6.684;2024-02-26T07:34:12;7.64;-6.00
19340;HTU21D;9804;52.350;6.684;2024-02-26T07:36:37;7.68;-6.00
19340;HTU21D;9804;52.350;6.684;2024-02-26T07:39:03;7.55;-6.00
19340;HTU21D;9804;52.350;6.684;2024-02-26T07:41:28;7.67;-6.00
19340;HTU21D;9804;52.350;6.684;2024-02-26T07:43:54;7.53;-6.00
19340;HTU21D;9804;52.350;6.684;2024-02-26T07:46:19;7.40;-6.00
19340;HTU21D;9804;52.350;6.684;2024-02-26T07:48:44;7.48;-6.00
19340;HTU21D;9804;52.350;6.684;2024-02-26T07:51:12;7.56;-6.00
19340;HTU21D;9804;52.350;6.684;2024-02-26T07:53:38;7.54;-6.00
19340;HTU21D;9804;52.350;6.684;2024-02-26T07:56:04;7.42;-6.00
19340;HTU21D;9804;52.350;6.684;2024-02-26T07:58:29;7.58;-6.00
19340;HTU21D;9804;52.350;6.684;2024-02-26T08:00:55;7.49;-6.00
19340;HTU21D;9804;52.350;6.684;2024-02-26T08:03:21;7.62;-6.00
19340;HTU21D;9804;52.350;6.684;2024-02-26T08:05:46;7.52;-6.00
19340;HTU21D;9804;52.350;6.684;2024-02-26T08:08:12;7.54;-6.00
19340;HTU21D;9804;52.350;6.684;2024-02-26T08:10:37;7.67;-6.00
19340;HTU21D;9804;52.350;6.684;2024-02-26T08:13:03;7.81;-6.00
19340;HTU21D;9804;52.350;6.684;2024-02-26T08:15:32;7.79;-6.00
19340;HTU21D;9804;52.350;6.684;2024-02-26T08:17:58;7.84;-6.00
19340;HTU21D;9804;52.350;6.684;2024-02-26T08:20:23;7.72;-6.00
19340;HTU21D;9804;52.350;6.684;2024-02-26T08:22:48;7.74;-6.00
19340;HTU21D;9804;52.350;6.684;2024-02-26T08:25:14;7.83;-6.00
19340;HTU21D;9804;52.350;6.684;2024-02-26T08:27:41;7.93;-6.00
19340;HTU21D;9804;52.350;6.684;2024-02-26T08:30:07;7.96;-6.00
19340;HTU21D;9804;52.350;6.684;2024-02-26T08:32:32;8.05;-6.00
19340;HTU21D;9804;52.350;6.684;2024-02-26T08:34:58;8.01;-6.00
19340;HTU21D;9804;52.350;6.684;2024-02-26T08:37:24;8.05;-6.00
19340;HTU21D;9804;52.350;6.684;2024-02-26T08:39:49;7.93;-6.00
19340;HTU21D;9804;52.350;6.684;2024-02-26T08:42:14;7.94;-6.00
19340;HTU21D;9804;52.350;6.684;2024-02-26T08:44:40;8.11;-6.00
19340;HTU21D;9804;52.350;6.684;2024-02-26T08:47:05;8.04;-6.00
19340;HTU21D;9804;52.350;6.684;2024-02-26T08:49:31;7.99;-6.00
19340;HTU21D;9804;52.350;6.684;2024-02-26T08:51:56;8.04;-6.00
19340;HTU21D;9804;52.350;6.684;2024-02-26T08:54:22;8.32;-6.00
19340;HTU21D;9804;52.350;6.684;2024-02-26T08:56:47;8.18;-6.00
19340;HTU21D;9804;52.350;6.684;2024-02-26T08:59:13;8.18;-6.00
19340;HTU21D;9804;52.350;6.684;2024-02-26T09:01:41;8.33;-6.00
19340;HTU21D;9804;52.350;6.684;2024-02-26T09:04:07;8.30;-6.00
19340;HTU21D;9804;52.350;6.684;2024-02-26T09:06:32;8.19;-6.00
19340;HTU21D;9804;52.350;6.684;2024-02-26T09:08:57;8.41;-6.00
19340;HTU21D;9804;52.350;6.684;2024-02-26T09:11:23;8.43;-6.00
19340;HTU21D;9804;52.350;6.684;2024-02-26T09:13:48;8.28;-6.00
19340;HTU21D;9804;52.350;6.684;2024-02-26T09:16:14;8.41;-6.00
19340;HTU21D;9804;52.350;6.684;2024-02-26T09:18:39;8.22;-6.00
19340;HTU21D;9804;52.350;6.684;2024-02-26T09:21:05;8.26;-6.00
19340;HTU21D;9804;52.350;6.684;2024-02-26T09:23:33;8.34;-6.00
19340;HTU21D;9804;52.350;6.684;2024-02-26T09:26:00;8.37;-6.00
19340;HTU21D;9804;52.350;6.684;2024-02-26T09:28:26;8.48;-6.00
19340;HTU21D;9804;52.350;6.684;2024-02-26T09:30:51;8.36;-6.00
19340;HTU21D;9804;52.350;6.684;2024-02-26T09:33:19;8.43;-6.00
19340;HTU21D;9804;52.350;6.684;2024-02-26T09:35:44;8.24;-6.00
19340;HTU21D;9804;52.350;6.684;2024-02-26T09:38:10;8.46;-6.00
19340;HTU21D;9804;52.350;6.684;2024-02-26T09:40:36;8.36;-6.00
19340;HTU21D;9804;52.350;6.684;2024-02-26T09:43:05;8.24;-6.00
19340;HTU21D;9804;52.350;6.684;2024-02-26T09:45:33;8.24;-6.00
19340;HTU21D;9804;52.350;6.684;2024-02-26T09:48:00;8.29;-6.00
19340;HTU21D;9804;52.350;6.684;2024-02-26T09:50:27;8.27;-6.00
19340;HTU21D;9804;52.350;6.684;2024-02-26T09:52:54;8.52;-6.00
19340;HTU21D;9804;52.350;6.684;2024-02-26T09:55:20;8.42;-6.00
19340;HTU21D;9804;52.350;6.684;2024-02-26T09:57:46;8.42;-6.00
19340;HTU21D;9804;52.350;6.684;2024-02-26T10:00:17;8.26;-6.00
19340;HTU21D;9804;52.350;6.684;2024-02-26T10:02:45;8.18;-6.00
19340;HTU21D;9804;52.350;6.684;2024-02-26T10:05:14;8.43;-6.00
19340;HTU21D;9804;52.350;6.684;2024-02-26T10:07:40;8.23;-6.00
19340;HTU21D;9804;52.350;6.684;2024-02-26T10:10:06;8.42;-6.00
19340;HTU21D;9804;52.350;6.684;2024-02-26T10:12:33;8.39;-6.00
19340;HTU21D;9804;52.350;6.684;2024-02-26T10:14:58;8.16;-6.00
19340;HTU21D;9804;52.350;6.684;2024-02-26T10:17:24;8.57;-6.00
19340;HTU21D;9804;52.350;6.684;2024-02-26T10:19:50;8.47;-6.00
19340;HTU21D;9804;52.350;6.684;2024-02-26T10:22:17;8.57;-6.00
19340;HTU21D;9804;52.350;6.684;2024-02-26T10:24:42;8.43;-6.00
19340;HTU21D;9804;52.350;6.684;2024-02-26T10:27:08;8.55;-6.00
19340;HTU21D;9804;52.350;6.684;2024-02-26T10:29:34;8.46;-6.00
19340;HTU21D;9804;52.350;6.684;2024-02-26T10:32:00;8.76;-6.00
19340;HTU21D;9804;52.350;6.684;2024-02-26T10:34:26;8.97;-6.00
19340;HTU21D;9804;52.350;6.684;2024-02-26T10:36:53;8.91;-6.00
19340;HTU21D;9804;52.350;6.684;2024-02-26T10:39:19;9.12;-6.00
19340;HTU21D;9804;52.350;6.684;2024-02-26T10:41:44;8.90;-6.00
19340;HTU21D;9804;52.350;6.684;2024-02-26T10:44:13;8.77;-6.00
19340;HTU21D;9804;52.350;6.684;2024-02-26T10:46:41;9.04;-6.00
19340;HTU21D;9804;52.350;6.684;2024-02-26T10:49:13;8.72;-6.00
19340;HTU21D;9804;52.350;6.684;2024-02-26T10:51:44;8.75;-6.00
19340;HTU21D;9804;52.350;6.684;2024-02-26T10:54:14;8.67;-6.00
19340;HTU21D;9804;52.350;6.684;2024-02-26T10:56:41;8.51;-6.00
19340;HTU21D;9804;52.350;6.684;2024-02-26T10:59:09;8.68;-6.00
19340;HTU21D;9804;52.350;6.684;2024-02-26T11:01:35;8.76;-6.00
19340;HTU21D;9804;52.350;6.684;2024-02-26T11:04:04;8.72;-6.00
19340;HTU21D;9804;52.350;6.684;2024-02-26T11:06:30;8.83;-6.00
19340;HTU21D;9804;52.350;6.684;2024-02-26T11:08:56;8.81;-6.00
19340;HTU21D;9804;52.350;6.684;2024-02-26T11:11:23;8.78;-6.00
19340;HTU21D;9804;52.350;6.684;2024-02-26T11:13:50;8.76;-6.00
19340;HTU21D;9804;52.350;6.684;2024-02-26T11:16:21;8.75;-6.00
19340;HTU21D;9804;52.350;6.684;2024-02-26T11:18:47;8.50;-6.00
19340;HTU21D;9804;52.350;6.684;2024-02-26T11:21:16;8.62;-6.00
19340;HTU21D;9804;52.350;6.684;2024-02-26T11:23:44;8.81;-6.00
19340;HTU21D;9804;52.350;6.684;2024-02-26T11:26:11;8.51;-6.00
19340;HTU21D;9804;52.350;6.684;2024-02-26T11:28:38;8.68;-6.00
19340;HTU21D;9804;52.350;6.684;2024-02-26T11:31:04;8.46;-6.00
19340;HTU21D;9804;52.350;6.684;2024-02-26T11:33:31;8.63;-6.00
19340;HTU21D;9804;52.350;6.684;2024-02-26T11:35:57;8.60;-6.00
19340;HTU21D;9804;52.350;6.684;2024-02-26T11:38:25;8.56;-6.00
19340;HTU21D;9804;52.350;6.684;2024-02-26T11:40:53;8.64;-6.00
19340;HTU21D;9804;52.350;6.684;2024-02-26T11:43:23;8.58;-6.00
19340;HTU21D;9804;52.350;6.684;2024-02-26T11:45:49;8.56;-6.00
19340;HTU21D;9804;52.350;6.684;2024-02-26T11:48:24;8.45;-6.00
19340;HTU21D;9804;52.350;6.684;2024-02-26T11:50:52;8.62;-6.00
19340;HTU21D;9804;52.350;6.684;2024-02-26T11:53:30;8.51;-6.00
19340;HTU21D;9804;52.350;6.684;2024-02-26T11:58:44;8.53;-6.00
19340;HTU21D;9804;52.350;6.684;2024-02-26T12:06:50;8.61;-6.00
19340;HTU21D;9804;52.350;6.684;2024-02-26T12:09:36;8.55;-6.00
19340;HTU21D;9804;52.350;6.684;2024-02-26T12:12:06;8.60;-6.00
19340;HTU21D;9804;52.350;6.684;2024-02-26T12:15:01;8.66;-6.00
19340;HTU21D;9804;52.350;6.684;2024-02-26T12:17:26;9.00;-6.00
19340;HTU21D;9804;52.350;6.684;2024-02-26T12:19:52;9.00;-6.00
19340;HTU21D;9804;52.350;6.684;2024-02-26T12:22:19;8.96;-6.00
19340;HTU21D;9804;52.350;6.684;2024-02-26T12:24:44;9.02;-6.00
19340;HTU21D;9804;52.350;6.684;2024-02-26T12:27:10;8.97;-6.00
19340;HTU21D;9804;52.350;6.684;2024-02-26T12:29:36;8.85;-6.00
19340;HTU21D;9804;52.350;6.684;2024-02-26T12:32:03;8.79;-6.00
19340;HTU21D;9804;52.350;6.684;2024-02-26T12:34:29;8.97;-6.00
19340;HTU21D;9804;52.350;6.684;2024-02-26T12:36:55;8.96;-6.00
19340;HTU21D;9804;52.350;6.684;2024-02-26T12:39:21;9.15;-6.00
19340;HTU21D;9804;52.350;6.684;2024-02-26T12:41:47;9.07;-6.00
19340;HTU21D;9804;52.350;6.684;2024-02-26T12:44:18;9.29;-6.00
19340;HTU21D;9804;52.350;6.684;2024-02-26T12:46:43;9.20;-6.00
19340;HTU21D;9804;52.350;6.684;2024-02-26T12:49:14;9.15;-6.00
19340;HTU21D;9804;52.350;6.684;2024-02-26T12:51:40;9.21;-6.00
19340;HTU21D;9804;52.350;6.684;2024-02-26T12:54:07;9.09;-6.00
19340;HTU21D;9804;52.350;6.684;2024-02-26T12:56:34;9.14;-6.00
19340;HTU21D;9804;52.350;6.684;2024-02-26T12:59:00;9.30;-6.00
19340;HTU21D;9804;52.350;6.684;2024-02-26T13:01:26;9.32;-6.00
19340;HTU21D;9804;52.350;6.684;2024-02-26T13:03:52;9.35;-6.00
19340;HTU21D;9804;52.350;6.684;2024-02-26T13:06:18;9.17;-6.00
19340;HTU21D;9804;52.350;6.684;2024-02-26T13:08:45;9.25;-6.00
19340;HTU21D;9804;52.350;6.684;2024-02-26T13:11:11;9.16;-6.00
19340;HTU21D;9804;52.350;6.684;2024-02-26T13:13:37;9.00;-6.00
19340;HTU21D;9804;52.350;6.684;2024-02-26T13:16:06;9.02;-6.00
19340;HTU21D;9804;52.350;6.684;2024-02-26T13:18:33;9.09;-6.00
19340;HTU21D;9804;52.350;6.684;2024-02-26T13:21:14;9.05;-6.00
19340;HTU21D;9804;52.350;6.684;2024-02-26T13:23:40;9.04;-6.00
19340;HTU21D;9804;52.350;6.684;2024-02-26T13:26:07;9.09;-6.00
19340;HTU21D;9804;52.350;6.684;2024-02-26T13:28:33;9.17;-6.00
19340;HTU21D;9804;52.350;6.684;2024-02-26T13:31:00;9.17;-6.00
19340;HTU21D;9804;52.350;6.684;2024-02-26T13:33:27;9.12;-6.00
19340;HTU21D;9804;52.350;6.684;2024-02-26T13:35:54;9.18;-6.00
19340;HTU21D;9804;52.350;6.684;2024-02-26T13:38:20;9.42;-6.00
19340;HTU21D;9804;52.350;6.684;2024-02-26T13:40:45;9.20;-6.00
19340;HTU21D;9804;52.350;6.684;2024-02-26T13:43:11;9.09;-6.00
19340;HTU21D;9804;52.350;6.684;2024-02-26T13:45:37;9.21;-6.00
19340;HTU21D;9804;52.350;6.684;2024-02-26T13:48:07;9.19;-6.00
19340;HTU21D;9804;52.350;6.684;2024-02-26T13:50:35;9.24;-6.00
19340;HTU21D;9804;52.350;6.684;2024-02-26T13:53:01;9.25;-6.00
19340;HTU21D;9804;52.350;6.684;2024-02-26T13:55:26;9.39;-6.00
19340;HTU21D;9804;52.350;6.684;2024-02-26T13:57:55;9.35;-6.00
19340;HTU21D;9804;52.350;6.684;2024-02-26T14:00:22;9.34;-6.00
19340;HTU21D;9804;52.350;6.684;2024-02-26T14:02:48;9.40;-6.00
19340;HTU21D;9804;52.350;6.684;2024-02-26T14:05:13;9.24;-6.00
19340;HTU21D;9804;52.350;6.684;2024-02-26T14:07:39;9.32;-6.00
19340;HTU21D;9804;52.350;6.684;2024-02-26T14:10:05;9.24;-6.00
19340;HTU21D;9804;52.350;6.684;2024-02-26T14:12:30;9.35;-6.00
19340;HTU21D;9804;52.350;6.684;2024-02-26T14:14:56;9.50;-6.00
19340;HTU21D;9804;52.350;6.684;2024-02-26T14:17:21;9.36;-6.00
19340;HTU21D;9804;52.350;6.684;2024-02-26T14:19:48;9.49;-6.00
19340;HTU21D;9804;52.350;6.684;2024-02-26T14:22:14;9.44;-6.00
19340;HTU21D;9804;52.350;6.684;2024-02-26T14:24:41;9.48;-6.00
19340;HTU21D;9804;52.350;6.684;2024-02-26T14:27:12;9.47;-6.00
19340;HTU21D;9804;52.350;6.684;2024-02-26T14:29:42;9.63;-6.00
19340;HTU21D;9804;52.350;6.684;2024-02-26T14:32:09;9.64;-6.00
19340;HTU21D;9804;52.350;6.684;2024-02-26T14:34:34;9.46;-6.00
19340;HTU21D;9804;52.350;6.684;2024-02-26T14:37:00;9.31;-6.00
19340;HTU21D;9804;52.350;6.684;2024-02-26T14:39:25;9.56;-6.00
19340;HTU21D;9804;52.350;6.684;2024-02-26T14:41:51;9.65;-6.00
19340;HTU21D;9804;52.350;6.684;2024-02-26T14:44:17;9.78;-6.00
19340;HTU21D;9804;52.350;6.684;2024-02-26T14:46:42;9.66;-6.00
19340;HTU21D;9804;52.350;6.684;2024-02-26T14:49:08;9.62;-6.00
19340;HTU21D;9804;52.350;6.684;2024-02-26T14:51:33;9.53;-6.00
19340;HTU21D;9804;52.350;6.684;2024-02-26T14:53:58;9.61;-6.00
19340;HTU21D;9804;52.350;6.684;2024-02-26T14:56:25;9.66;-6.00
19340;HTU21D;9804;52.350;6.684;2024-02-26T14:58:51;9.60;-6.00
19340;HTU21D;9804;52.350;6.684;2024-02-26T15:01:16;9.51;-6.00
19340;HTU21D;9804;52.350;6.684;2024-02-26T15:03:42;9.46;-6.00
19340;HTU21D;9804;52.350;6.684;2024-02-26T15:06:07;9.51;-6.00
19340;HTU21D;9804;52.350;6.684;2024-02-26T15:08:33;9.31;-6.00
19340;HTU21D;9804;52.350;6.684;2024-02-26T15:11:01;9.38;-6.00
19340;HTU21D;9804;52.350;6.684;2024-02-26T15:13:26;9.52;-6.00
19340;HTU21D;9804;52.350;6.684;2024-02-26T15:15:52;9.60;-6.00
19340;HTU21D;9804;52.350;6.684;2024-02-26T15:18:17;9.45;-6.00
19340;HTU21D;9804;52.350;6.684;2024-02-26T15:20:44;9.36;-6.00
19340;HTU21D;9804;52.350;6.684;2024-02-26T15:23:10;9.47;-6.00
19340;HTU21D;9804;52.350;6.684;2024-02-26T15:25:36;9.30;-6.00
19340;HTU21D;9804;52.350;6.684;2024-02-26T15:28:02;9.37;-6.00
19340;HTU21D;9804;52.350;6.684;2024-02-26T15:30:27;9.30;-6.00
19340;HTU21D;9804;52.350;6.684;2024-02-26T15:32:55;9.29;-6.00
19340;HTU21D;9804;52.350;6.684;2024-02-26T15:35:21;9.27;-6.00
19340;HTU21D;9804;52.350;6.684;2024-02-26T15:37:47;9.23;-6.00
19340;HTU21D;9804;52.350;6.684;2024-02-26T15:40:12;9.54;-6.00
19340;HTU21D;9804;52.350;6.684;2024-02-26T15:42:38;9.22;-6.00
19340;HTU21D;9804;52.350;6.684;2024-02-26T15:45:04;9.17;-6.00
19340;HTU21D;9804;52.350;6.684;2024-02-26T15:47:30;9.16;-6.00